sensor_id;sensor_type;location;lat;lon;timestamp;P1;durP1;ratioP1;P2;durP2;ratioP2
42420;SDS011;28063;48.140;11.588;2024-01-10T00:00:10;19.58;;;9.95;;
42420;SDS011;28063;48.140;11.588;2024-01-10T00:02:36;19.10;;;9.77;;
42420;SDS011;28063;48.140;11.588;2024-01-10T00:05:02;19.52;;;9.18;;
42420;SDS011;28063;48.140;11.588;2024-01-10T00:07:28;18.05;;;8.15;;
42420;SDS011;28063;48.140;11.588;2024-01-10T00:09:55;24.15;;;9.48;;
42420;SDS011;28063;48.140;11.588;2024-01-10T00:12:22;20.92;;;8.40;;
42420;SDS011;28063;48.140;11.588;2024-01-10T00:14:48;14.52;;;7.55;;
42420;SDS011;28063;48.140;11.588;2024-01-10T00:17:14;16.38;;;7.90;;
42420;SDS011;28063;48.140;11.588;2024-01-10T00:19:40;17.30;;;8.43;;
42420;SDS011;28063;48.140;11.588;2024-01-10T00:22:07;17.05;;;8.60;;
42420;SDS011;28063;48.140;11.588;2024-01-10T00:24:33;18.33;;;7.88;;
42420;SDS011;28063;48.140;11.588;2024-01-10T00:26:59;15.70;;;8.25;;
42420;SDS011;28063;48.140;11.588;2024-01-10T00:29:25;16.98;;;7.72;;
42420;SDS011;28063;48.140;11.588;2024-01-10T00:31:54;14.35;;;7.25;;
42420;SDS011;28063;48.140;11.588;2024-01-10T00:34:24;14.68;;;7.13;;
42420;SDS011;28063;48.140;11.588;2024-01-10T00:36:50;16.45;;;7.90;;
42420;SDS011;28063;48.140;11.588;2024-01-10T00:39:16;15.27;;;7.38;;
42420;SDS011;28063;48.140;11.588;2024-01-10T00:41:42;15.65;;;7.57;;
42420;SDS011;28063;48.140;11.588;2024-01-10T00:44:09;19.48;;;7.47;;
42420;SDS011;28063;48.140;11.588;2024-01-10T00:46:35;15.02;;;7.28;;
42420;SDS011;28063;48.140;11.588;2024-01-10T00:49:01;13.43;;;6.78;;
42420;SDS011;28063;48.140;11.588;2024-01-10T00:51:28;12.55;;;6.20;;
42420;SDS011;28063;48.140;11.588;2024-01-10T00:53:54;13.18;;;7.38;;
42420;SDS011;28063;48.140;11.588;2024-01-10T00:56:22;13.48;;;6.97;;
42420;SDS011;28063;48.140;11.588;2024-01-10T00:58:49;17.73;;;7.45;;
42420;SDS011;28063;48.140;11.588;2024-01-10T01:01:15;23.10;;;9.73;;
42420;SDS011;28063;48.140;11.588;2024-01-10T01:03:41;24.10;;;10.32;;
42420;SDS011;28063;48.140;11.588;2024-01-10T01:06:09;19.95;;;9.50;;
42420;SDS011;28063;48.140;11.588;2024-01-10T01:08:37;20.95;;;9.10;;
42420;SDS011;28063;48.140;11.588;2024-01-10T01:11:03;22.63;;;9.55;;
42420;SDS011;28063;48.140;11.588;2024-01-10T01:13:29;24.58;;;10.70;;
42420;SDS011;28063;48.140;11.588;2024-01-10T01:15:55;22.40;;;10.30;;
42420;SDS011;28063;48.140;11.588;2024-01-10T01:18:22;25.67;;;11.48;;
42420;SDS011;28063;48.140;11.588;2024-01-10T01:20:48;35.15;;;13.32;;
42420;SDS011;28063;48.140;11.588;2024-01-10T01:23:15;28.42;;;13.25;;
42420;SDS011;28063;48.140;11.588;2024-01-10T01:25:41;29.70;;;13.25;;
42420;SDS011;28063;48.140;11.588;2024-01-10T01:28:08;31.25;;;13.15;;
42420;SDS011;28063;48.140;11.588;2024-01-10T01:30:34;31.83;;;13.25;;
42420;SDS011;28063;48.140;11.588;2024-01-10T01:33:00;28.15;;;11.80;;
42420;SDS011;28063;48.140;11.588;2024-01-10T01:35:29;26.45;;;11.77;;
42420;SDS011;28063;48.140;11.588;2024-01-10T01:37:55;25.33;;;11.70;;
42420;SDS011;28063;48.140;11.588;2024-01-10T01:40:22;26.20;;;10.98;;
42420;SDS011;28063;48.140;11.588;2024-01-10T01:42:51;26.25;;;11.30;;
42420;SDS011;28063;48.140;11.588;2024-01-10T01:45:18;27.60;;;11.88;;
42420;SDS011;28063;48.140;11.588;2024-01-10T01:47:45;24.77;;;11.02;;
42420;SDS011;28063;48.140;11.588;2024-01-10T01:50:11;25.58;;;11.23;;
42420;SDS011;28063;48.140;11.588;2024-01-10T01:52:37;28.73;;;12.18;;
42420;SDS011;28063;48.140;11.588;2024-01-10T01:55:03;21.30;;;10.20;;
42420;SDS011;28063;48.140;11.588;2024-01-10T01:57:30;25.77;;;10.63;;
42420;SDS011;28063;48.140;11.588;2024-01-10T01:59:57;21.42;;;9.70;;
42420;SDS011;28063;48.140;11.588;2024-01-10T02:02:24;25.50;;;11.32;;
42420;SDS011;28063;48.140;11.588;2024-01-10T02:04:50;26.90;;;12.05;;
42420;SDS011;28063;48.140;11.588;2024-01-10T02:07:20;27.25;;;11.95;;
42420;SDS011;28063;48.140;11.588;2024-01-10T02:09:46;29.52;;;12.65;;
42420;SDS011;28063;48.140;11.588;2024-01-10T02:12:12;30.13;;;11.73;;
42420;SDS011;28063;48.140;11.588;2024-01-10T02:14:38;26.83;;;11.45;;
42420;SDS011;28063;48.140;11.588;2024-01-10T02:17:04;31.38;;;12.93;;
42420;SDS011;28063;48.140;11.588;2024-01-10T02:19:30;25.90;;;10.93;;
42420;SDS011;28063;48.140;11.588;2024-01-10T02:21:57;26.10;;;11.48;;
42420;SDS011;28063;48.140;11.588;2024-01-10T02:24:23;25.83;;;11.45;;
42420;SDS011;28063;48.140;11.588;2024-01-10T02:26:49;24.38;;;11.32;;
42420;SDS011;28063;48.140;11.588;2024-01-10T02:29:16;27.23;;;10.80;;
42420;SDS011;28063;48.140;11.588;2024-01-10T02:31:42;25.10;;;10.45;;
42420;SDS011;28063;48.140;11.588;2024-01-10T02:34:09;23.85;;;10.07;;
42420;SDS011;28063;48.140;11.588;2024-01-10T02:36:35;23.25;;;10.57;;
42420;SDS011;28063;48.140;11.588;2024-01-10T02:39:01;20.92;;;9.45;;
42420;SDS011;28063;48.140;11.588;2024-01-10T02:41:27;20.70;;;9.43;;
42420;SDS011;28063;48.140;11.588;2024-01-10T02:43:53;22.13;;;8.95;;
42420;SDS011;28063;48.140;11.588;2024-01-10T02:46:23;21.33;;;9.93;;
42420;SDS011;28063;48.140;11.588;2024-01-10T02:48:52;20.17;;;9.45;;
42420;SDS011;28063;48.140;11.588;2024-01-10T02:51:18;22.65;;;10.02;;
42420;SDS011;28063;48.140;11.588;2024-01-10T02:53:44;20.45;;;9.88;;
42420;SDS011;28063;48.140;11.588;2024-01-10T02:56:10;24.30;;;11.18;;
42420;SDS011;28063;48.140;11.588;2024-01-10T02:58:37;23.40;;;11.30;;
42420;SDS011;28063;48.140;11.588;2024-01-10T03:01:03;27.40;;;11.98;;
42420;SDS011;28063;48.140;11.588;2024-01-10T03:03:29;28.25;;;11.77;;
42420;SDS011;28063;48.140;11.588;2024-01-10T03:05:55;25.65;;;11.60;;
42420;SDS011;28063;48.140;11.588;2024-01-10T03:08:21;28.38;;;11.73;;
42420;SDS011;28063;48.140;11.588;2024-01-10T03:10:47;26.05;;;11.88;;
42420;SDS011;28063;48.140;11.588;2024-01-10T03:13:13;23.58;;;10.35;;
42420;SDS011;28063;48.140;11.588;2024-01-10T03:15:39;23.10;;;11.05;;
42420;SDS011;28063;48.140;11.588;2024-01-10T03:18:05;29.52;;;11.60;;
42420;SDS011;28063;48.140;11.588;2024-01-10T03:20:31;25.80;;;10.88;;
42420;SDS011;28063;48.140;11.588;2024-01-10T03:22:57;21.48;;;10.63;;
42420;SDS011;28063;48.140;11.588;2024-01-10T03:25:24;26.10;;;10.82;;
42420;SDS011;28063;48.140;11.588;2024-01-10T03:27:50;19.52;;;9.00;;
42420;SDS011;28063;48.140;11.588;2024-01-10T03:30:16;25.42;;;11.13;;
42420;SDS011;28063;48.140;11.588;2024-01-10T03:32:43;29.52;;;13.35;;
42420;SDS011;28063;48.140;11.588;2024-01-10T03:35:09;22.33;;;9.73;;
42420;SDS011;28063;48.140;11.588;2024-01-10T03:37:35;25.25;;;11.15;;
42420;SDS011;28063;48.140;11.588;2024-01-10T03:40:01;20.77;;;9.23;;
42420;SDS011;28063;48.140;11.588;2024-01-10T03:42:28;25.02;;;11.05;;
42420;SDS011;28063;48.140;11.588;2024-01-10T03:44:54;25.42;;;11.65;;
42420;SDS011;28063;48.140;11.588;2024-01-10T03:47:20;23.52;;;10.60;;
42420;SDS011;28063;48.140;11.588;2024-01-10T03:49:46;24.20;;;11.40;;
42420;SDS011;28063;48.140;11.588;2024-01-10T03:52:12;25.83;;;10.65;;
42420;SDS011;28063;48.140;11.588;2024-01-10T03:54:38;23.98;;;10.02;;
42420;SDS011;28063;48.140;11.588;2024-01-10T03:57:05;25.42;;;10.55;;
42420;SDS011;28063;48.140;11.588;2024-01-10T03:59:32;24.38;;;11.02;;
42420;SDS011;28063;48.140;11.588;2024-01-10T04:01:58;26.10;;;11.70;;
42420;SDS011;28063;48.140;11.588;2024-01-10T04:04:25;25.33;;;10.82;;
42420;SDS011;28063;48.140;11.588;2024-01-10T04:06:52;25.02;;;11.25;;
42420;SDS011;28063;48.140;11.588;2024-01-10T04:09:18;23.33;;;10.60;;
42420;SDS011;28063;48.140;11.588;2024-01-10T04:11:44;22.80;;;10.13;;
42420;SDS011;28063;48.140;11.588;2024-01-10T04:14:11;23.20;;;10.73;;
42420;SDS011;28063;48.140;11.588;2024-01-10T04:16:37;25.40;;;10.48;;
42420;SDS011;28063;48.140;11.588;2024-01-10T04:19:03;25.20;;;11.05;;
42420;SDS011;28063;48.140;11.588;2024-01-10T04:21:29;27.17;;;11.25;;
42420;SDS011;28063;48.140;11.588;2024-01-10T04:23:56;21.40;;;10.68;;
42420;SDS011;28063;48.140;11.588;2024-01-10T04:26:22;25.40;;;10.90;;
42420;SDS011;28063;48.140;11.588;2024-01-10T04:28:48;27.20;;;10.88;;
42420;SDS011;28063;48.140;11.588;2024-01-10T04:31:14;28.70;;;12.30;;
42420;SDS011;28063;48.140;11.588;2024-01-10T04:33:40;29.25;;;12.23;;
42420;SDS011;28063;48.140;11.588;2024-01-10T04:36:07;24.27;;;10.88;;
42420;SDS011;28063;48.140;11.588;2024-01-10T04:38:33;23.27;;;11.00;;
42420;SDS011;28063;48.140;11.588;2024-01-10T04:40:59;26.38;;;12.00;;
42420;SDS011;28063;48.140;11.588;2024-01-10T04:43:25;28.40;;;11.70;;
42420;SDS011;28063;48.140;11.588;2024-01-10T04:45:51;24.77;;;11.10;;
42420;SDS011;28063;48.140;11.588;2024-01-10T04:48:17;28.60;;;11.77;;
42420;SDS011;28063;48.140;11.588;2024-01-10T04:50:43;24.08;;;9.27;;
42420;SDS011;28063;48.140;11.588;2024-01-10T04:53:09;22.90;;;9.50;;
42420;SDS011;28063;48.140;11.588;2024-01-10T04:55:35;24.02;;;10.23;;
42420;SDS011;28063;48.140;11.588;2024-01-10T04:58:02;21.67;;;9.60;;
42420;SDS011;28063;48.140;11.588;2024-01-10T05:00:28;19.13;;;8.90;;
42420;SDS011;28063;48.140;11.588;2024-01-10T05:02:54;20.92;;;9.02;;
42420;SDS011;28063;48.140;11.588;2024-01-10T05:05:20;17.30;;;7.97;;
42420;SDS011;28063;48.140;11.588;2024-01-10T05:07:49;17.40;;;8.48;;
42420;SDS011;28063;48.140;11.588;2024-01-10T05:10:15;19.10;;;7.63;;
42420;SDS011;28063;48.140;11.588;2024-01-10T05:12:42;21.42;;;9.18;;
42420;SDS011;28063;48.140;11.588;2024-01-10T05:15:08;25.65;;;10.63;;
42420;SDS011;28063;48.140;11.588;2024-01-10T05:17:34;22.58;;;9.43;;
42420;SDS011;28063;48.140;11.588;2024-01-10T05:20:00;22.13;;;10.43;;
42420;SDS011;28063;48.140;11.588;2024-01-10T05:22:26;23.83;;;10.05;;
42420;SDS011;28063;48.140;11.588;2024-01-10T05:24:52;24.95;;;10.90;;
42420;SDS011;28063;48.140;11.588;2024-01-10T05:27:18;23.55;;;9.75;;
42420;SDS011;28063;48.140;11.588;2024-01-10T05:29:44;24.65;;;8.98;;
42420;SDS011;28063;48.140;11.588;2024-01-10T05:32:12;22.67;;;10.85;;
42420;SDS011;28063;48.140;11.588;2024-01-10T05:34:38;22.17;;;9.32;;
42420;SDS011;28063;48.140;11.588;2024-01-10T05:37:04;20.58;;;8.95;;
42420;SDS011;28063;48.140;11.588;2024-01-10T05:39:30;22.90;;;9.45;;
42420;SDS011;28063;48.140;11.588;2024-01-10T05:41:57;23.77;;;9.73;;
42420;SDS011;28063;48.140;11.588;2024-01-10T05:44:24;20.00;;;9.10;;
42420;SDS011;28063;48.140;11.588;2024-01-10T05:46:50;22.38;;;8.98;;
42420;SDS011;28063;48.140;11.588;2024-01-10T05:49:16;18.58;;;7.93;;
42420;SDS011;28063;48.140;11.588;2024-01-10T05:51:42;21.15;;;9.50;;
42420;SDS011;28063;48.140;11.588;2024-01-10T05:54:09;20.08;;;8.48;;
42420;SDS011;28063;48.140;11.588;2024-01-10T05:56:35;19.05;;;9.05;;
42420;SDS011;28063;48.140;11.588;2024-01-10T05:59:01;25.40;;;9.15;;
42420;SDS011;28063;48.140;11.588;2024-01-10T06:01:27;29.05;;;10.35;;
42420;SDS011;28063;48.140;11.588;2024-01-10T06:03:54;24.13;;;9.63;;
42420;SDS011;28063;48.140;11.588;2024-01-10T06:06:20;23.42;;;10.82;;
42420;SDS011;28063;48.140;11.588;2024-01-10T06:08:46;27.77;;;10.25;;
42420;SDS011;28063;48.140;11.588;2024-01-10T06:11:12;27.75;;;10.73;;
42420;SDS011;28063;48.140;11.588;2024-01-10T06:13:38;25.48;;;10.32;;
42420;SDS011;28063;48.140;11.588;2024-01-10T06:16:06;25.67;;;10.82;;
42420;SDS011;28063;48.140;11.588;2024-01-10T06:18:33;26.52;;;11.00;;
42420;SDS011;28063;48.140;11.588;2024-01-10T06:20:59;22.48;;;9.00;;
42420;SDS011;28063;48.140;11.588;2024-01-10T06:23:25;23.02;;;9.10;;
42420;SDS011;28063;48.140;11.588;2024-01-10T06:25:51;21.60;;;9.32;;
42420;SDS011;28063;48.140;11.588;2024-01-10T06:28:19;24.55;;;9.50;;
42420;SDS011;28063;48.140;11.588;2024-01-10T06:30:45;25.10;;;9.82;;
42420;SDS011;28063;48.140;11.588;2024-01-10T06:33:12;25.08;;;9.73;;
42420;SDS011;28063;48.140;11.588;2024-01-10T06:35:39;22.80;;;10.23;;
42420;SDS011;28063;48.140;11.588;2024-01-10T06:38:05;23.67;;;10.40;;
42420;SDS011;28063;48.140;11.588;2024-01-10T06:40:31;22.45;;;8.75;;
42420;SDS011;28063;48.140;11.588;2024-01-10T06:42:57;21.58;;;9.77;;
42420;SDS011;28063;48.140;11.588;2024-01-10T06:45:23;19.45;;;8.88;;
42420;SDS011;28063;48.140;11.588;2024-01-10T06:47:49;21.67;;;8.60;;
42420;SDS011;28063;48.140;11.588;2024-01-10T06:50:15;21.50;;;9.27;;
42420;SDS011;28063;48.140;11.588;2024-01-10T06:52:44;21.88;;;9.80;;
42420;SDS011;28063;48.140;11.588;2024-01-10T06:55:10;26.15;;;10.18;;
42420;SDS011;28063;48.140;11.588;2024-01-10T06:57:36;21.02;;;9.50;;
42420;SDS011;28063;48.140;11.588;2024-01-10T07:00:02;21.52;;;9.20;;
42420;SDS011;28063;48.140;11.588;2024-01-10T07:02:32;26.17;;;10.40;;
42420;SDS011;28063;48.140;11.588;2024-01-10T07:05:00;23.27;;;9.68;;
42420;SDS011;28063;48.140;11.588;2024-01-10T07:07:27;24.80;;;9.57;;
42420;SDS011;28063;48.140;11.588;2024-01-10T07:09:55;26.52;;;9.55;;
42420;SDS011;28063;48.140;11.588;2024-01-10T07:12:22;22.63;;;9.15;;
42420;SDS011;28063;48.140;11.588;2024-01-10T07:14:48;20.73;;;8.70;;
42420;SDS011;28063;48.140;11.588;2024-01-10T07:17:14;23.33;;;8.85;;
42420;SDS011;28063;48.140;11.588;2024-01-10T07:19:40;21.25;;;8.88;;
42420;SDS011;28063;48.140;11.588;2024-01-10T07:22:06;25.20;;;8.77;;
42420;SDS011;28063;48.140;11.588;2024-01-10T07:24:33;23.90;;;9.82;;
42420;SDS011;28063;48.140;11.588;2024-01-10T07:27:00;24.58;;;9.90;;
42420;SDS011;28063;48.140;11.588;2024-01-10T07:29:26;19.98;;;8.52;;
42420;SDS011;28063;48.140;11.588;2024-01-10T07:31:52;22.63;;;8.57;;
42420;SDS011;28063;48.140;11.588;2024-01-10T07:34:19;22.48;;;8.75;;
42420;SDS011;28063;48.140;11.588;2024-01-10T07:36:46;21.95;;;9.55;;
42420;SDS011;28063;48.140;11.588;2024-01-10T07:39:12;22.65;;;9.73;;
42420;SDS011;28063;48.140;11.588;2024-01-10T07:41:44;19.05;;;8.15;;
42420;SDS011;28063;48.140;11.588;2024-01-10T07:44:10;17.52;;;7.30;;
42420;SDS011;28063;48.140;11.588;2024-01-10T07:46:37;17.13;;;7.18;;
42420;SDS011;28063;48.140;11.588;2024-01-10T07:49:03;15.88;;;7.10;;
42420;SDS011;28063;48.140;11.588;2024-01-10T07:51:30;17.40;;;7.90;;
42420;SDS011;28063;48.140;11.588;2024-01-10T07:53:57;19.35;;;8.68;;
42420;SDS011;28063;48.140;11.588;2024-01-10T07:56:24;25.63;;;10.13;;
42420;SDS011;28063;48.140;11.588;2024-01-10T07:58:51;28.10;;;10.93;;
42420;SDS011;28063;48.140;11.588;2024-01-10T08:01:17;29.70;;;11.30;;
42420;SDS011;28063;48.140;11.588;2024-01-10T08:03:45;34.55;;;13.32;;
42420;SDS011;28063;48.140;11.588;2024-01-10T08:06:11;31.63;;;13.07;;
42420;SDS011;28063;48.140;11.588;2024-01-10T08:08:37;33.60;;;12.82;;
42420;SDS011;28063;48.140;11.588;2024-01-10T08:11:03;30.27;;;12.55;;
42420;SDS011;28063;48.140;11.588;2024-01-10T08:13:30;33.20;;;12.35;;
42420;SDS011;28063;48.140;11.588;2024-01-10T08:15:56;35.20;;;13.32;;
42420;SDS011;28063;48.140;11.588;2024-01-10T08:18:25;27.42;;;11.90;;
42420;SDS011;28063;48.140;11.588;2024-01-10T08:20:51;28.10;;;11.65;;
42420;SDS011;28063;48.140;11.588;2024-01-10T08:23:17;30.33;;;12.43;;
42420;SDS011;28063;48.140;11.588;2024-01-10T08:25:43;30.55;;;11.95;;
42420;SDS011;28063;48.140;11.588;2024-01-10T08:28:09;34.70;;;13.23;;
42420;SDS011;28063;48.140;11.588;2024-01-10T08:30:35;34.67;;;12.85;;
42420;SDS011;28063;48.140;11.588;2024-01-10T08:33:02;27.55;;;12.02;;
42420;SDS011;28063;48.140;11.588;2024-01-10T08:35:29;30.10;;;12.50;;
42420;SDS011;28063;48.140;11.588;2024-01-10T08:37:55;32.67;;;13.25;;
42420;SDS011;28063;48.140;11.588;2024-01-10T08:40:22;35.20;;;13.98;;
42420;SDS011;28063;48.140;11.588;2024-01-10T08:42:51;36.00;;;14.48;;
42420;SDS011;28063;48.140;11.588;2024-01-10T08:45:17;37.60;;;15.05;;
42420;SDS011;28063;48.140;11.588;2024-01-10T08:47:43;34.33;;;14.88;;
42420;SDS011;28063;48.140;11.588;2024-01-10T08:50:09;32.40;;;13.85;;
42420;SDS011;28063;48.140;11.588;2024-01-10T08:52:36;30.65;;;13.25;;
42420;SDS011;28063;48.140;11.588;2024-01-10T08:55:05;31.77;;;13.13;;
42420;SDS011;28063;48.140;11.588;2024-01-10T08:57:31;34.58;;;14.80;;
42420;SDS011;28063;48.140;11.588;2024-01-10T08:59:58;39.22;;;17.08;;
42420;SDS011;28063;48.140;11.588;2024-01-10T09:02:25;36.47;;;14.85;;
42420;SDS011;28063;48.140;11.588;2024-01-10T09:04:52;36.97;;;15.38;;
42420;SDS011;28063;48.140;11.588;2024-01-10T09:07:19;39.47;;;14.57;;
42420;SDS011;28063;48.140;11.588;2024-01-10T09:09:46;34.42;;;14.90;;
42420;SDS011;28063;48.140;11.588;2024-01-10T09:12:13;32.10;;;14.05;;
42420;SDS011;28063;48.140;11.588;2024-01-10T09:14:39;34.00;;;13.38;;
42420;SDS011;28063;48.140;11.588;2024-01-10T09:17:05;32.42;;;13.23;;
42420;SDS011;28063;48.140;11.588;2024-01-10T09:19:32;40.33;;;16.70;;
42420;SDS011;28063;48.140;11.588;2024-01-10T09:21:58;41.25;;;16.73;;
42420;SDS011;28063;48.140;11.588;2024-01-10T09:24:24;44.83;;;18.27;;
42420;SDS011;28063;48.140;11.588;2024-01-10T09:26:54;41.63;;;17.33;;
42420;SDS011;28063;48.140;11.588;2024-01-10T09:29:21;37.08;;;16.83;;
42420;SDS011;28063;48.140;11.588;2024-01-10T09:31:47;37.70;;;14.25;;
42420;SDS011;28063;48.140;11.588;2024-01-10T09:34:13;37.17;;;14.98;;
42420;SDS011;28063;48.140;11.588;2024-01-10T09:36:39;32.58;;;13.57;;
42420;SDS011;28063;48.140;11.588;2024-01-10T09:39:05;37.53;;;16.58;;
42420;SDS011;28063;48.140;11.588;2024-01-10T09:41:40;37.03;;;15.82;;
42420;SDS011;28063;48.140;11.588;2024-01-10T09:44:06;32.70;;;15.98;;
42420;SDS011;28063;48.140;11.588;2024-01-10T09:46:33;35.80;;;15.07;;
42420;SDS011;28063;48.140;11.588;2024-01-10T09:49:00;37.80;;;15.43;;
42420;SDS011;28063;48.140;11.588;2024-01-10T09:51:26;35.45;;;15.35;;
42420;SDS011;28063;48.140;11.588;2024-01-10T09:53:53;47.42;;;18.73;;
42420;SDS011;28063;48.140;11.588;2024-01-10T09:56:19;50.47;;;19.90;;
42420;SDS011;28063;48.140;11.588;2024-01-10T09:58:45;45.63;;;18.83;;
42420;SDS011;28063;48.140;11.588;2024-01-10T10:01:14;45.92;;;18.25;;
42420;SDS011;28063;48.140;11.588;2024-01-10T10:03:41;40.40;;;15.82;;
42420;SDS011;28063;48.140;11.588;2024-01-10T10:06:08;42.58;;;17.90;;
42420;SDS011;28063;48.140;11.588;2024-01-10T10:08:34;44.70;;;20.50;;
42420;SDS011;28063;48.140;11.588;2024-01-10T10:11:00;47.58;;;19.88;;
42420;SDS011;28063;48.140;11.588;2024-01-10T10:13:28;47.15;;;20.17;;
42420;SDS011;28063;48.140;11.588;2024-01-10T10:16:01;43.75;;;18.80;;
42420;SDS011;28063;48.140;11.588;2024-01-10T10:18:30;41.65;;;18.48;;
42420;SDS011;28063;48.140;11.588;2024-01-10T10:21:07;46.85;;;17.52;;
42420;SDS011;28063;48.140;11.588;2024-01-10T10:23:34;37.60;;;16.20;;
42420;SDS011;28063;48.140;11.588;2024-01-10T10:26:09;46.67;;;19.58;;
42420;SDS011;28063;48.140;11.588;2024-01-10T10:28:35;40.08;;;18.80;;
42420;SDS011;28063;48.140;11.588;2024-01-10T10:31:02;36.38;;;16.67;;
42420;SDS011;28063;48.140;11.588;2024-01-10T10:33:31;36.13;;;16.65;;
42420;SDS011;28063;48.140;11.588;2024-01-10T10:35:58;39.22;;;17.02;;
42420;SDS011;28063;48.140;11.588;2024-01-10T10:38:24;39.40;;;15.90;;
42420;SDS011;28063;48.140;11.588;2024-01-10T10:40:50;38.63;;;17.70;;
42420;SDS011;28063;48.140;11.588;2024-01-10T10:43:18;45.20;;;19.52;;
42420;SDS011;28063;48.140;11.588;2024-01-10T10:45:47;45.80;;;20.90;;
42420;SDS011;28063;48.140;11.588;2024-01-10T10:48:17;43.15;;;20.38;;
42420;SDS011;28063;48.140;11.588;2024-01-10T10:50:52;46.65;;;20.38;;
42420;SDS011;28063;48.140;11.588;2024-01-10T10:53:21;47.78;;;22.15;;
42420;SDS011;28063;48.140;11.588;2024-01-10T10:55:48;45.53;;;19.70;;
42420;SDS011;28063;48.140;11.588;2024-01-10T10:58:17;46.20;;;19.85;;
42420;SDS011;28063;48.140;11.588;2024-01-10T11:00:43;38.75;;;17.48;;
42420;SDS011;28063;48.140;11.588;2024-01-10T11:03:12;42.50;;;17.95;;
42420;SDS011;28063;48.140;11.588;2024-01-10T11:05:40;48.40;;;19.83;;
42420;SDS011;28063;48.140;11.588;2024-01-10T11:08:07;46.33;;;19.63;;
42420;SDS011;28063;48.140;11.588;2024-01-10T11:10:35;51.83;;;23.33;;
42420;SDS011;28063;48.140;11.588;2024-01-10T11:16:18;50.67;;;21.40;;
42420;SDS011;28063;48.140;11.588;2024-01-10T11:24:20;51.08;;;19.58;;
42420;SDS011;28063;48.140;11.588;2024-01-10T11:26:46;45.63;;;17.60;;
42420;SDS011;28063;48.140;11.588;2024-01-10T11:29:14;36.65;;;17.52;;
42420;SDS011;28063;48.140;11.588;2024-01-10T11:31:41;37.55;;;17.35;;
42420;SDS011;28063;48.140;11.588;2024-01-10T11:34:08;43.05;;;19.33;;
42420;SDS011;28063;48.140;11.588;2024-01-10T11:36:35;44.42;;;19.75;;
42420;SDS011;28063;48.140;11.588;2024-01-10T11:39:04;43.20;;;19.45;;
42420;SDS011;28063;48.140;11.588;2024-01-10T11:41:31;40.92;;;18.27;;
42420;SDS011;28063;48.140;11.588;2024-01-10T11:44:43;38.30;;;16.10;;
42420;SDS011;28063;48.140;11.588;2024-01-10T11:46:47;35.38;;;15.48;;
42420;SDS011;28063;48.140;11.588;2024-01-10T11:49:14;37.75;;;15.98;;
42420;SDS011;28063;48.140;11.588;2024-01-10T11:51:44;31.67;;;14.68;;
42420;SDS011;28063;48.140;11.588;2024-01-10T11:54:10;31.30;;;14.07;;
42420;SDS011;28063;48.140;11.588;2024-01-10T11:56:40;30.77;;;13.88;;
42420;SDS011;28063;48.140;11.588;2024-01-10T11:59:07;38.55;;;17.08;;
42420;SDS011;28063;48.140;11.588;2024-01-10T12:01:35;55.30;;;23.17;;
42420;SDS011;28063;48.140;11.588;2024-01-10T12:04:02;64.55;;;26.30;;
42420;SDS011;28063;48.140;11.588;2024-01-10T12:06:32;54.38;;;23.98;;
42420;SDS011;28063;48.140;11.588;2024-01-10T12:08:58;49.47;;;21.75;;
42420;SDS011;28063;48.140;11.588;2024-01-10T12:11:24;54.15;;;23.88;;
42420;SDS011;28063;48.140;11.588;2024-01-10T12:13:52;56.67;;;23.10;;
42420;SDS011;28063;48.140;11.588;2024-01-10T12:16:18;47.58;;;21.70;;
42420;SDS011;28063;48.140;11.588;2024-01-10T12:18:44;47.00;;;20.00;;
42420;SDS011;28063;48.140;11.588;2024-01-10T12:21:10;46.58;;;19.20;;
42420;SDS011;28063;48.140;11.588;2024-01-10T12:23:37;43.63;;;18.40;;
42420;SDS011;28063;48.140;11.588;2024-01-10T12:26:07;39.30;;;17.58;;
42420;SDS011;28063;48.140;11.588;2024-01-10T12:28:35;37.78;;;17.70;;
42420;SDS011;28063;48.140;11.588;2024-01-10T12:31:02;37.95;;;17.67;;
42420;SDS011;28063;48.140;11.588;2024-01-10T12:33:30;34.63;;;16.05;;
42420;SDS011;28063;48.140;11.588;2024-01-10T12:38:35;34.70;;;15.45;;
42420;SDS011;28063;48.140;11.588;2024-01-10T12:41:01;40.28;;;18.52;;
42420;SDS011;28063;48.140;11.588;2024-01-10T12:43:28;42.20;;;17.30;;
42420;SDS011;28063;48.140;11.588;2024-01-10T12:46:08;36.30;;;15.77;;
42420;SDS011;28063;48.140;11.588;2024-01-10T12:48:40;37.05;;;16.23;;
42420;SDS011;28063;48.140;11.588;2024-01-10T12:51:10;32.05;;;15.13;;
42420;SDS011;28063;48.140;11.588;2024-01-10T12:53:40;34.40;;;15.20;;
42420;SDS011;28063;48.140;11.588;2024-01-10T12:56:07;32.40;;;15.30;;
42420;SDS011;28063;48.140;11.588;2024-01-10T12:58:34;32.08;;;14.43;;
42420;SDS011;28063;48.140;11.588;2024-01-10T13:01:04;33.67;;;13.57;;
42420;SDS011;28063;48.140;11.588;2024-01-10T13:03:30;27.38;;;12.40;;
42420;SDS011;28063;48.140;11.588;2024-01-10T13:05:57;32.22;;;15.23;;
42420;SDS011;28063;48.140;11.588;2024-01-10T13:08:23;27.02;;;14.20;;
42420;SDS011;28063;48.140;11.588;2024-01-10T13:10:49;41.15;;;15.25;;
42420;SDS011;28063;48.140;11.588;2024-01-10T13:13:16;36.15;;;16.27;;
42420;SDS011;28063;48.140;11.588;2024-01-10T13:15:47;46.13;;;19.45;;
42420;SDS011;28063;48.140;11.588;2024-01-10T13:18:13;39.88;;;17.02;;
42420;SDS011;28063;48.140;11.588;2024-01-10T13:20:40;50.30;;;20.13;;
42420;SDS011;28063;48.140;11.588;2024-01-10T13:23:06;49.03;;;20.73;;
42420;SDS011;28063;48.140;11.588;2024-01-10T13:25:33;51.28;;;20.73;;
42420;SDS011;28063;48.140;11.588;2024-01-10T13:27:59;41.17;;;18.77;;
42420;SDS011;28063;48.140;11.588;2024-01-10T13:30:26;47.60;;;20.42;;
42420;SDS011;28063;48.140;11.588;2024-01-10T13:32:52;53.50;;;22.40;;
42420;SDS011;28063;48.140;11.588;2024-01-10T13:35:18;45.83;;;20.77;;
42420;SDS011;28063;48.140;11.588;2024-01-10T13:37:45;48.22;;;19.08;;
42420;SDS011;28063;48.140;11.588;2024-01-10T13:40:11;44.42;;;19.15;;
42420;SDS011;28063;48.140;11.588;2024-01-10T13:42:38;53.95;;;22.45;;
42420;SDS011;28063;48.140;11.588;2024-01-10T13:45:05;50.08;;;21.23;;
42420;SDS011;28063;48.140;11.588;2024-01-10T13:47:34;48.35;;;20.92;;
42420;SDS011;28063;48.140;11.588;2024-01-10T13:50:00;46.85;;;19.65;;
42420;SDS011;28063;48.140;11.588;2024-01-10T13:52:28;44.47;;;19.20;;
42420;SDS011;28063;48.140;11.588;2024-01-10T13:54:54;44.35;;;19.10;;
42420;SDS011;28063;48.140;11.588;2024-01-10T13:57:21;45.42;;;19.92;;
42420;SDS011;28063;48.140;11.588;2024-01-10T13:59:48;46.38;;;18.50;;
42420;SDS011;28063;48.140;11.588;2024-01-10T14:02:14;54.42;;;22.85;;
42420;SDS011;28063;48.140;11.588;2024-01-10T14:04:41;44.72;;;19.75;;
42420;SDS011;28063;48.140;11.588;2024-01-10T14:07:07;49.08;;;19.67;;
42420;SDS011;28063;48.140;11.588;2024-01-10T14:09:37;41.10;;;18.30;;
42420;SDS011;28063;48.140;11.588;2024-01-10T14:12:03;42.67;;;17.67;;
42420;SDS011;28063;48.140;11.588;2024-01-10T14:14:29;43.00;;;17.08;;
42420;SDS011;28063;48.140;11.588;2024-01-10T14:16:57;41.42;;;16.45;;
42420;SDS011;28063;48.140;11.588;2024-01-10T14:19:23;41.08;;;16.60;;
42420;SDS011;28063;48.140;11.588;2024-01-10T14:21:49;37.63;;;16.23;;